Time;durP1;ratioP1;P1;durP2;ratioP2;P2;SDS_P1;SDS_P2;PMS_P1;PMS_P2;Temp;Humidity;BMP_temperature;BMP_pressure;BME280_temperature;BME280_humidity;BME280_pressure;Samples;Min_cycle;Max_cycle;Signal;HPM_P1;HPM_P2
2022/01/05 00:01:46;;;;;;;2.90;1.30;;;18.50;99.90;;;;;;4164671;28;20220;-76
2022/01/05 00:03:50;;;;;;;3.17;1.45;;;18.40;99.90;;;;;;4165187;28;20263;-77
2022/01/05 00:05:52;;;;;;;2.08;1.30;;;18.40;99.90;;;;;;4164624;28;20220;-77
2022/01/05 00:07:55;;;;;;;2.92;1.48;;;18.40;99.90;;;;;;4164939;28;20286;-77
2022/01/05 00:09:57;;;;;;;3.28;1.55;;;18.40;99.90;;;;;;4165236;28;20565;-77
2022/01/05 00:11:59;;;;;;;3.17;1.48;;;18.40;99.90;;;;;;4164760;28;20278;-77
2022/01/05 00:14:02;;;;;;;5.13;1.63;;;18.40;99.90;;;;;;4164535;28;20216;-77
2022/01/05 00:16:06;;;;;;;2.88;1.10;;;18.40;99.90;;;;;;4176467;28;20265;-77
2022/01/05 00:18:08;;;;;;;3.53;1.50;;;18.40;99.90;;;;;;4181446;28;20727;-77
2022/01/05 00:20:12;;;;;;;2.83;1.25;;;18.40;99.90;;;;;;4181107;28;20216;-77
2022/01/05 00:22:14;;;;;;;3.60;1.33;;;18.40;99.90;;;;;;4180865;28;20738;-77
2022/01/05 00:24:16;;;;;;;3.53;1.85;;;18.40;99.90;;;;;;4180697;28;20281;-77
2022/01/05 00:26:19;;;;;;;3.15;1.55;;;18.40;99.90;;;;;;4181330;28;20212;-77
2022/01/05 00:28:21;;;;;;;3.28;1.58;;;18.30;99.90;;;;;;4180982;28;20262;-77
2022/01/05 00:30:24;;;;;;;3.67;1.30;;;18.30;99.90;;;;;;4181279;28;20219;-77
2022/01/05 00:32:27;;;;;;;4.03;1.40;;;18.30;99.90;;;;;;4180887;28;20261;-77
2022/01/05 00:34:30;;;;;;;4.20;1.60;;;18.30;99.90;;;;;;4180678;28;20286;-77
2022/01/05 00:36:32;;;;;;;2.92;1.50;;;18.30;99.90;;;;;;4181246;28;20220;-76
2022/01/05 00:38:35;;;;;;;5.32;1.65;;;18.30;99.90;;;;;;4180938;28;20216;-76
2022/01/05 00:40:37;;;;;;;2.55;1.40;;;18.30;99.90;;;;;;4180395;28;20270;-76
2022/01/05 00:42:40;;;;;;;3.35;1.55;;;18.30;99.90;;;;;;4180965;28;20215;-76
2022/01/05 00:44:42;;;;;;;3.92;1.60;;;18.30;99.90;;;;;;4180864;28;20215;-76
2022/01/05 00:46:44;;;;;;;3.83;1.73;;;18.20;99.90;;;;;;4180736;28;20223;-76
2022/01/05 00:48:48;;;;;;;2.42;1.38;;;18.30;99.90;;;;;;4177277;28;20212;-76
2022/01/05 00:50:53;;;;;;;4.20;1.27;;;18.20;99.90;;;;;;4180230;28;20212;-76
2022/01/05 00:53:00;;;;;;;2.78;1.33;;;18.20;99.90;;;;;;4181201;28;20250;-76
2022/01/05 00:55:02;;;;;;;3.92;1.58;;;18.20;99.90;;;;;;4179505;28;20281;-76
2022/01/05 00:57:05;;;;;;;2.90;1.25;;;18.30;99.90;;;;;;4183846;28;20227;-76
2022/01/05 00:59:07;;;;;;;3.25;1.60;;;18.20;99.90;;;;;;4185194;28;20284;-76
2022/01/05 01:01:10;;;;;;;3.33;1.25;;;18.20;99.90;;;;;;4185054;28;20262;-76
2022/01/05 01:03:12;;;;;;;2.40;1.50;;;18.20;99.90;;;;;;4185655;28;20219;-76
2022/01/05 01:05:16;;;;;;;3.70;1.73;;;18.20;99.90;;;;;;4185910;28;20265;-76
2022/01/05 01:07:18;;;;;;;3.42;1.48;;;18.20;99.90;;;;;;4185467;28;20262;-76
2022/01/05 01:09:20;;;;;;;5.70;1.55;;;18.20;99.90;;;;;;4185410;28;20281;-76
2022/01/05 01:11:23;;;;;;;4.18;1.65;;;18.20;99.90;;;;;;4183871;28;20246;-77
2022/01/05 01:13:26;;;;;;;3.13;1.30;;;18.10;99.90;;;;;;4184339;28;20222;-76
2022/01/05 01:15:28;;;;;;;2.88;1.40;;;18.10;99.90;;;;;;4184377;28;20274;-76
2022/01/05 01:17:30;;;;;;;3.40;1.60;;;18.10;99.90;;;;;;4185746;28;20227;-76
2022/01/05 01:19:33;;;;;;;3.85;1.65;;;18.20;99.90;;;;;;4184732;28;20231;-76
2022/01/05 01:21:37;;;;;;;3.58;1.58;;;18.20;99.90;;;;;;4185263;28;20667;-76
2022/01/05 01:23:42;;;;;;;5.13;1.83;;;18.10;99.90;;;;;;4184035;28;20952;-76
2022/01/05 01:25:44;;;;;;;3.38;1.30;;;18.10;99.90;;;;;;4185147;28;20698;-76
2022/01/05 01:27:47;;;;;;;4.25;1.52;;;18.10;99.90;;;;;;4185798;28;20276;-76
2022/01/05 01:29:49;;;;;;;3.58;1.30;;;18.10;99.90;;;;;;4184681;28;20264;-76
2022/01/05 01:31:51;;;;;;;4.35;1.40;;;18.10;99.90;;;;;;4185165;28;20328;-77
2022/01/05 01:33:54;;;;;;;4.05;1.52;;;18.10;99.90;;;;;;4183957;28;20632;-77
2022/01/05 01:35:56;;;;;;;4.75;1.85;;;18.10;99.90;;;;;;4187472;28;20619;-76
2022/01/05 01:38:00;;;;;;;3.22;1.52;;;18.10;99.90;;;;;;4187196;28;20273;-77
2022/01/05 01:40:02;;;;;;;3.58;1.50;;;18.00;99.90;;;;;;4188220;28;20610;-76
2022/01/05 01:42:05;;;;;;;4.38;1.60;;;18.00;99.90;;;;;;4187656;28;20842;-76
2022/01/05 01:44:08;;;;;;;5.10;2.00;;;18.10;99.90;;;;;;4185476;28;20215;-76
2022/01/05 01:46:10;;;;;;;4.65;2.00;;;18.00;99.90;;;;;;4186260;28;20272;-77
2022/01/05 01:48:17;;;;;;;2.70;1.48;;;18.00;99.90;;;;;;4188150;28;20224;-76
2022/01/05 01:50:19;;;;;;;3.60;1.63;;;18.00;99.90;;;;;;4188109;28;20326;-76
2022/01/05 01:52:21;;;;;;;3.58;1.50;;;18.00;99.90;;;;;;4186870;28;20282;-76
2022/01/05 01:54:26;;;;;;;4.70;1.67;;;18.00;99.90;;;;;;4185827;28;20220;-77
2022/01/05 01:56:33;;;;;;;3.22;1.80;;;18.00;99.90;;;;;;4186766;28;20222;-76
2022/01/05 01:58:36;;;;;;;4.05;1.80;;;18.00;99.90;;;;;;4186776;28;20276;-76
2022/01/05 02:00:38;;;;;;;4.18;1.73;;;18.00;99.90;;;;;;4185589;28;20618;-76
2022/01/05 02:02:43;;;;;;;2.75;1.63;;;18.00;99.90;;;;;;4186907;28;20253;-76
2022/01/05 02:04:46;;;;;;;4.15;1.77;;;18.00;99.90;;;;;;4186459;28;20220;-76
2022/01/05 02:06:48;;;;;;;4.40;1.73;;;18.00;99.90;;;;;;4185705;28;20604;-76
2022/01/05 02:08:50;;;;;;;3.42;1.67;;;18.00;99.90;;;;;;4185450;28;20220;-76
2022/01/05 02:10:55;;;;;;;2.63;1.42;;;18.00;99.90;;;;;;4184985;28;20294;-76
2022/01/05 02:12:57;;;;;;;3.38;1.73;;;17.90;99.90;;;;;;4185674;28;20760;-76
2022/01/05 02:15:00;;;;;;;3.55;1.40;;;17.90;99.90;;;;;;4186051;28;20274;-76
2022/01/05 02:17:08;;;;;;;4.45;1.92;;;17.90;99.90;;;;;;4184734;28;20286;-76
2022/01/05 02:19:10;;;;;;;4.68;1.77;;;17.90;99.90;;;;;;4185136;28;20241;-76
2022/01/05 02:21:15;;;;;;;2.97;1.55;;;17.90;99.90;;;;;;4184968;28;20269;-76
2022/01/05 02:23:17;;;;;;;4.38;2.00;;;17.90;99.90;;;;;;4184412;28;20224;-76
2022/01/05 02:25:20;;;;;;;5.28;1.88;;;17.90;99.90;;;;;;4184218;28;20246;-76
2022/01/05 02:27:22;;;;;;;3.63;1.60;;;17.90;99.90;;;;;;4184286;28;20262;-76
2022/01/05 02:29:24;;;;;;;4.85;2.08;;;17.90;99.90;;;;;;4183921;28;20294;-77
2022/01/05 02:31:27;;;;;;;4.93;1.88;;;17.90;99.90;;;;;;4183610;28;20215;-76
2022/01/05 02:33:29;;;;;;;2.63;1.48;;;17.90;99.90;;;;;;4183560;28;20697;-76
2022/01/05 02:35:32;;;;;;;3.45;1.63;;;17.90;99.90;;;;;;4180206;28;20285;-76
2022/01/05 02:37:40;;;;;;;3.33;1.65;;;17.80;99.90;;;;;;4180171;28;20220;-76
2022/01/05 02:39:43;;;;;;;5.68;1.65;;;17.80;99.90;;;;;;4178017;28;20273;-76
2022/01/05 02:41:45;;;;;;;4.18;1.58;;;17.80;99.90;;;;;;4178629;28;20228;-76
2022/01/05 02:43:48;;;;;;;4.25;1.73;;;17.80;99.90;;;;;;4179323;28;20212;-77
2022/01/05 02:45:50;;;;;;;3.40;1.63;;;17.80;99.90;;;;;;4179247;28;20688;-76
2022/01/05 02:47:53;;;;;;;4.47;1.70;;;17.80;99.90;;;;;;4179931;28;20266;-77
2022/01/05 02:49:58;;;;;;;5.22;1.60;;;17.80;99.90;;;;;;4179840;28;20285;-76
2022/01/05 02:52:00;;;;;;;3.70;1.50;;;17.80;99.90;;;;;;4179770;28;20207;-76
2022/01/05 02:54:06;;;;;;;4.30;1.60;;;17.80;99.90;;;;;;4179841;28;20270;-76
2022/01/05 02:56:08;;;;;;;3.95;1.50;;;17.70;99.90;;;;;;4179032;28;20615;-76
2022/01/05 02:58:11;;;;;;;3.45;1.40;;;17.80;99.90;;;;;;4179579;28;20277;-76
2022/01/05 03:00:15;;;;;;;6.90;2.05;;;17.80;99.90;;;;;;4179664;28;20618;-76
2022/01/05 03:02:17;;;;;;;3.75;1.67;;;17.70;99.90;;;;;;4177959;28;20628;-76
2022/01/05 03:04:19;;;;;;;5.53;1.95;;;17.80;99.90;;;;;;4179736;28;20672;-76
2022/01/05 03:06:22;;;;;;;5.57;2.38;;;17.70;99.90;;;;;;4179770;28;20215;-76
2022/01/05 03:08:25;;;;;;;5.30;1.75;;;17.70;99.90;;;;;;4179491;28;20282;-76
2022/01/05 03:10:28;;;;;;;4.32;1.58;;;17.70;99.90;;;;;;4179114;28;20223;-76
2022/01/05 03:12:31;;;;;;;5.10;1.95;;;17.70;99.90;;;;;;4179476;28;20614;-76
2022/01/05 03:14:33;;;;;;;5.03;1.98;;;17.70;99.90;;;;;;4179256;28;20626;-76
2022/01/05 03:16:35;;;;;;;3.70;2.05;;;17.70;99.90;;;;;;4179226;28;20264;-77
2022/01/05 03:18:37;;;;;;;4.72;2.00;;;17.70;99.90;;;;;;4179215;28;20273;-76
2022/01/05 03:20:40;;;;;;;4.78;2.00;;;17.70;99.90;;;;;;4178462;28;20223;-76
2022/01/05 03:22:42;;;;;;;4.85;1.80;;;17.70;99.90;;;;;;4179168;28;20216;-76
2022/01/05 03:24:44;;;;;;;4.00;2.00;;;17.70;99.90;;;;;;4179075;28;20220;-76
2022/01/05 03:26:48;;;;;;;4.95;2.00;;;17.70;99.90;;;;;;4178718;28;20277;-76
2022/01/05 03:28:50;;;;;;;5.25;2.10;;;17.70;99.90;;;;;;4179490;28;20219;-76
2022/01/05 03:30:53;;;;;;;4.07;1.80;;;17.60;99.90;;;;;;4180725;28;20220;-76
2022/01/05 03:33:13;;;;;;;7.43;2.13;;;17.70;99.90;;;;;;4179379;28;20244;-77
2022/01/05 03:35:15;;;;;;;4.20;1.90;;;17.70;99.90;;;;;;4172674;28;20270;-76
2022/01/05 03:37:18;;;;;;;5.72;1.80;;;17.70;99.90;;;;;;4167127;28;20208;-76
2022/01/05 03:39:20;;;;;;;5.32;1.77;;;17.70;99.90;;;;;;4170475;28;20258;-77
2022/01/05 03:41:22;;;;;;;5.10;1.60;;;17.60;99.90;;;;;;4167776;28;20668;-77
2022/01/05 03:43:26;;;;;;;4.35;1.80;;;17.60;99.90;;;;;;4169348;28;20262;-76
2022/01/05 03:45:28;;;;;;;5.53;2.15;;;17.60;99.90;;;;;;4169654;28;20220;-76
2022/01/05 03:47:30;;;;;;;5.93;2.17;;;17.60;99.90;;;;;;4170964;28;20228;-76
2022/01/05 03:49:33;;;;;;;5.63;1.80;;;17.60;99.90;;;;;;4170178;28;20278;-76
2022/01/05 03:51:35;;;;;;;4.38;1.70;;;17.60;99.90;;;;;;4172103;28;20219;-77
2022/01/05 03:53:37;;;;;;;5.60;2.05;;;17.60;99.90;;;;;;4168960;28;20251;-77
2022/01/05 03:55:41;;;;;;;4.70;1.98;;;17.60;99.90;;;;;;4169523;28;20273;-76
2022/01/05 03:57:43;;;;;;;4.15;2.00;;;17.60;99.90;;;;;;4168333;28;20262;-76
2022/01/05 03:59:47;;;;;;;5.22;1.67;;;17.50;99.90;;;;;;4175419;28;20219;-76
2022/01/05 04:01:49;;;;;;;4.20;1.92;;;17.50;99.90;;;;;;4181408;28;20219;-77
2022/01/05 04:03:52;;;;;;;5.47;2.10;;;17.50;99.90;;;;;;4181399;28;20212;-76
2022/01/05 04:05:54;;;;;;;4.28;1.70;;;17.50;99.90;;;;;;4181538;28;20212;-76
2022/01/05 04:07:56;;;;;;;5.90;1.95;;;17.50;99.90;;;;;;4181773;28;20233;-76
2022/01/05 04:09:59;;;;;;;4.43;1.67;;;17.50;99.90;;;;;;4181609;28;20219;-76
2022/01/05 04:12:01;;;;;;;4.18;1.80;;;17.50;99.90;;;;;;4181401;28;20216;-76
2022/01/05 04:14:06;;;;;;;2.70;1.67;;;17.50;99.90;;;;;;4181546;28;20633;-76
2022/01/05 04:16:10;;;;;;;6.10;1.92;;;17.50;99.90;;;;;;4181519;28;20560;-76
2022/01/05 04:18:12;;;;;;;3.60;1.75;;;17.50;99.90;;;;;;4181111;28;20216;-76
2022/01/05 04:20:16;;;;;;;4.35;1.90;;;17.50;99.90;;;;;;4181695;28;20265;-76
2022/01/05 04:22:18;;;;;;;6.15;1.73;;;17.50;99.90;;;;;;4181026;28;20619;-76
2022/01/05 04:24:21;;;;;;;5.15;1.83;;;17.50;99.90;;;;;;4181657;28;20782;-76
2022/01/05 04:26:23;;;;;;;4.05;1.55;;;17.50;99.90;;;;;;4181376;28;20219;-76
2022/01/05 04:28:25;;;;;;;4.50;1.70;;;17.40;99.90;;;;;;4181249;28;20661;-76
2022/01/05 04:30:28;;;;;;;5.85;2.05;;;17.50;99.90;;;;;;4181278;28;20616;-76
2022/01/05 04:32:31;;;;;;;4.80;1.85;;;17.40;99.90;;;;;;4181001;28;20211;-76
2022/01/05 04:34:34;;;;;;;5.30;1.85;;;17.40;99.90;;;;;;4180856;28;20235;-76
2022/01/05 04:36:36;;;;;;;5.88;2.10;;;17.50;99.90;;;;;;4181105;28;20215;-76
2022/01/05 04:38:38;;;;;;;5.80;1.75;;;17.40;99.90;;;;;;4180712;28;20216;-76
2022/01/05 04:40:40;;;;;;;4.18;1.73;;;17.40;99.90;;;;;;4181319;28;20629;-76
2022/01/05 04:42:43;;;;;;;7.03;2.40;;;17.40;99.90;;;;;;4181136;28;20211;-76
2022/01/05 04:44:45;;;;;;;5.85;2.17;;;17.40;99.90;;;;;;4181294;28;20215;-76
2022/01/05 04:46:47;;;;;;;3.45;2.05;;;17.40;99.90;;;;;;4181223;28;20254;-76
2022/01/05 04:48:51;;;;;;;5.47;1.98;;;17.40;99.90;;;;;;4181146;28;20668;-76
2022/01/05 04:50:53;;;;;;;6.68;1.90;;;17.40;99.90;;;;;;4180920;28;20216;-76
2022/01/05 04:52:55;;;;;;;5.13;1.98;;;17.40;99.90;;;;;;4181244;28;20227;-76
2022/01/05 04:54:58;;;;;;;5.18;1.63;;;17.40;99.90;;;;;;4180898;28;20575;-76
2022/01/05 04:57:00;;;;;;;5.68;1.85;;;17.40;99.90;;;;;;4181176;28;20668;-76
2022/01/05 04:59:04;;;;;;;3.72;1.98;;;17.30;99.90;;;;;;4181209;28;20287;-76
2022/01/05 05:01:07;;;;;;;4.22;1.95;;;17.30;99.90;;;;;;4181096;28;20216;-76
2022/01/05 05:03:10;;;;;;;5.60;2.15;;;17.30;99.90;;;;;;4180985;28;20615;-76
2022/01/05 05:05:13;;;;;;;6.05;2.22;;;17.30;99.90;;;;;;4180361;28;20211;-75
2022/01/05 05:07:16;;;;;;;3.95;1.75;;;17.40;99.90;;;;;;4180758;28;20652;-76
2022/01/05 05:09:18;;;;;;;5.65;2.00;;;17.30;99.90;;;;;;4180802;28;20669;-76
2022/01/05 05:11:21;;;;;;;4.85;1.90;;;17.30;99.90;;;;;;4180415;28;20258;-76
2022/01/05 05:13:23;;;;;;;4.22;1.73;;;17.30;99.90;;;;;;4180367;28;20637;-76
2022/01/05 05:15:25;;;;;;;4.55;1.95;;;17.30;99.90;;;;;;4180782;28;20208;-76
2022/01/05 05:17:28;;;;;;;5.28;2.13;;;17.30;99.90;;;;;;4180424;28;20603;-76
2022/01/05 05:19:31;;;;;;;7.60;2.10;;;17.30;99.90;;;;;;4180682;28;20619;-76
2022/01/05 05:21:35;;;;;;;6.22;2.45;;;17.30;99.90;;;;;;4180696;28;20262;-76
2022/01/05 05:23:37;;;;;;;5.25;1.98;;;17.30;99.90;;;;;;4180851;28;20223;-76
2022/01/05 05:25:39;;;;;;;8.55;2.13;;;17.30;99.90;;;;;;4181060;28;20239;-76
2022/01/05 05:27:42;;;;;;;5.20;1.70;;;17.20;99.90;;;;;;4181011;28;20219;-76
2022/01/05 05:29:44;;;;;;;4.57;1.95;;;17.30;99.90;;;;;;4180497;28;20652;-76
2022/01/05 05:31:46;;;;;;;4.75;1.80;;;17.20;99.90;;;;;;4180480;28;20689;-76
2022/01/05 05:33:48;;;;;;;4.82;1.80;;;17.30;99.90;;;;;;4180604;28;20686;-76
2022/01/05 05:35:51;;;;;;;6.32;2.08;;;17.20;99.90;;;;;;4180522;28;20266;-76
2022/01/05 05:37:54;;;;;;;4.85;2.00;;;17.20;99.90;;;;;;4177404;28;20211;-76
2022/01/05 05:39:58;;;;;;;5.60;1.92;;;17.20;99.90;;;;;;4191276;28;20721;-76
2022/01/05 05:42:01;;;;;;;5.32;2.08;;;17.20;99.90;;;;;;4197211;28;20219;-76
2022/01/05 05:44:03;;;;;;;5.13;1.90;;;17.20;99.90;;;;;;4197171;28;20608;-76
2022/01/05 05:46:05;;;;;;;6.18;2.08;;;17.20;99.90;;;;;;4197252;28;20211;-76
2022/01/05 05:48:08;;;;;;;5.05;2.17;;;17.20;99.90;;;;;;4197150;28;20628;-76
2022/01/05 05:50:11;;;;;;;3.75;1.80;;;17.20;99.90;;;;;;4196740;28;20337;-76
2022/01/05 05:52:13;;;;;;;4.75;2.17;;;17.20;99.90;;;;;;4197613;28;20280;-76
2022/01/05 05:54:17;;;;;;;3.78;1.95;;;17.20;99.90;;;;;;4197249;28;20691;-76
2022/01/05 05:56:19;;;;;;;5.25;1.98;;;17.20;99.90;;;;;;4197028;28;20215;-76
2022/01/05 05:58:21;;;;;;;5.18;1.95;;;17.10;99.90;;;;;;4197383;28;20237;-76
2022/01/05 06:00:24;;;;;;;5.60;1.98;;;17.10;99.90;;;;;;4197080;28;20616;-76
2022/01/05 06:02:26;;;;;;;7.65;2.30;;;17.10;99.90;;;;;;4197334;28;20269;-76
2022/01/05 06:04:29;;;;;;;6.10;2.13;;;17.20;99.90;;;;;;4197047;28;20207;-76
2022/01/05 06:06:31;;;;;;;6.85;2.40;;;17.20;99.90;;;;;;4197125;28;20733;-76
2022/01/05 06:08:34;;;;;;;5.13;2.05;;;17.30;99.90;;;;;;4196986;28;20667;-76
2022/01/05 06:10:37;;;;;;;7.75;2.10;;;17.30;99.90;;;;;;4196915;28;20215;-76
2022/01/05 06:12:40;;;;;;;7.13;2.40;;;17.30;99.90;;;;;;4197254;28;20339;-76
2022/01/05 06:14:42;;;;;;;4.95;1.92;;;17.30;99.90;;;;;;4195791;28;20231;-76
2022/01/05 06:16:44;;;;;;;6.53;2.17;;;17.30;99.90;;;;;;4180088;28;20266;-76
2022/01/05 06:18:47;;;;;;;5.20;1.50;;;17.30;99.90;;;;;;4180115;28;20672;-76
2022/01/05 06:20:49;;;;;;;6.97;2.20;;;17.40;99.90;;;;;;4180389;28;20208;-75
2022/01/05 06:22:51;;;;;;;4.95;2.00;;;17.40;99.90;;;;;;4182960;28;20262;-76
2022/01/05 06:24:54;;;;;;;5.25;2.10;;;17.40;99.90;;;;;;4182849;28;20212;-76
2022/01/05 06:26:57;;;;;;;5.72;2.17;;;17.40;99.90;;;;;;4183222;28;20617;-76
2022/01/05 06:29:00;;;;;;;5.65;2.03;;;17.40;99.90;;;;;;4183369;28;20219;-76
2022/01/05 06:31:02;;;;;;;7.22;1.92;;;17.40;99.90;;;;;;4183358;28;20224;-76
2022/01/05 06:33:05;;;;;;;6.65;2.05;;;17.40;99.90;;;;;;4182873;28;20278;-76
2022/01/05 06:35:08;;;;;;;4.38;2.10;;;17.50;99.90;;;;;;4182546;28;20681;-76
2022/01/05 06:37:10;;;;;;;6.72;2.30;;;17.50;99.90;;;;;;4182706;28;20216;-76
2022/01/05 06:39:13;;;;;;;4.20;1.95;;;17.50;99.90;;;;;;4182767;28;20270;-76
2022/01/05 06:41:15;;;;;;;6.43;1.98;;;17.50;99.90;;;;;;4183076;28;20626;-76
2022/01/05 06:43:19;;;;;;;5.35;1.98;;;17.50;99.90;;;;;;4182802;28;20270;-76
2022/01/05 06:45:21;;;;;;;4.88;1.95;;;17.50;99.90;;;;;;4182740;28;20258;-76
2022/01/05 06:47:23;;;;;;;4.22;1.98;;;17.50;99.90;;;;;;4182598;28;20219;-76
2022/01/05 06:49:26;;;;;;;5.13;2.22;;;17.50;99.90;;;;;;4182852;28;20211;-76
2022/01/05 06:51:28;;;;;;;5.18;1.75;;;17.60;99.90;;;;;;4182532;28;20266;-76
2022/01/05 06:53:31;;;;;;;4.70;1.85;;;17.60;99.90;;;;;;4181821;28;20243;-76
2022/01/05 06:55:33;;;;;;;4.78;2.05;;;17.60;99.90;;;;;;4181816;28;20243;-76
2022/01/05 06:57:37;;;;;;;4.28;1.80;;;17.50;99.90;;;;;;4181697;28;20216;-76
2022/01/05 06:59:40;;;;;;;5.65;1.70;;;17.60;99.90;;;;;;4181566;28;20737;-76
2022/01/05 07:01:43;;;;;;;7.15;2.00;;;17.60;99.90;;;;;;4182023;28;20242;-76
2022/01/05 07:03:45;;;;;;;5.75;2.00;;;17.60;99.90;;;;;;4181375;28;20266;-76
2022/01/05 07:05:47;;;;;;;6.32;2.50;;;17.60;99.90;;;;;;4181404;28;20215;-76
2022/01/05 07:07:50;;;;;;;5.60;2.03;;;17.60;99.90;;;;;;4182135;28;20738;-76
2022/01/05 07:09:52;;;;;;;6.07;2.13;;;17.60;99.90;;;;;;4182373;28;20224;-76
2022/01/05 07:11:54;;;;;;;5.85;1.95;;;17.70;99.90;;;;;;4182097;28;20223;-76
2022/01/05 07:13:57;;;;;;;5.65;2.00;;;17.70;99.90;;;;;;4182123;28;20224;-76
2022/01/05 07:16:00;;;;;;;5.57;1.83;;;17.70;99.90;;;;;;4181804;28;20232;-76
2022/01/05 07:18:03;;;;;;;4.28;1.80;;;17.70;99.90;;;;;;4182166;28;20255;-76
2022/01/05 07:20:07;;;;;;;5.03;2.13;;;17.70;99.90;;;;;;4181995;28;20270;-76
2022/01/05 07:22:09;;;;;;;5.70;1.95;;;17.70;99.90;;;;;;4182488;28;20216;-76
2022/01/05 07:24:11;;;;;;;5.22;1.90;;;17.70;99.90;;;;;;4182267;28;20246;-76
2022/01/05 07:26:14;;;;;;;6.18;1.80;;;17.70;99.90;;;;;;4179225;28;20216;-76
2022/01/05 07:28:16;;;;;;;6.78;1.73;;;17.80;99.90;;;;;;4190951;28;20215;-76
2022/01/05 07:30:18;;;;;;;5.90;1.98;;;17.80;99.90;;;;;;4198786;28;20223;-76
2022/01/05 07:32:22;;;;;;;4.93;1.95;;;17.70;99.90;;;;;;4198110;28;20664;-75
2022/01/05 07:34:24;;;;;;;6.57;1.98;;;17.70;99.90;;;;;;4197940;28;20231;-76
2022/01/05 07:36:27;;;;;;;5.07;1.70;;;17.80;99.90;;;;;;4198408;28;20687;-75
2022/01/05 07:38:29;;;;;;;4.25;1.60;;;17.80;99.90;;;;;;4198097;28;20633;-76
2022/01/05 07:40:31;;;;;;;5.97;1.85;;;17.80;99.90;;;;;;4198791;28;20219;-76
2022/01/05 07:42:35;;;;;;;6.13;1.80;;;17.80;99.90;;;;;;4198645;28;20211;-75
2022/01/05 07:44:37;;;;;;;5.68;2.10;;;17.80;99.90;;;;;;4183373;28;20215;-76
2022/01/05 07:46:40;;;;;;;5.88;2.05;;;17.80;99.90;;;;;;4181278;28;20219;-76
2022/01/05 07:48:43;;;;;;;4.03;1.75;;;17.80;99.90;;;;;;4181626;28;20270;-76
2022/01/05 07:50:46;;;;;;;3.75;1.77;;;17.80;99.90;;;;;;4181321;28;20220;-75
2022/01/05 07:52:48;;;;;;;5.72;1.70;;;17.80;99.90;;;;;;4181602;28;20735;-76
2022/01/05 07:54:51;;;;;;;4.63;1.85;;;17.80;99.90;;;;;;4181172;28;20220;-75
2022/01/05 07:56:53;;;;;;;5.60;1.92;;;17.80;99.90;;;;;;4181323;28;20242;-76
2022/01/05 07:58:56;;;;;;;4.68;1.95;;;17.80;99.90;;;;;;4181815;28;20225;-76
2022/01/05 08:00:58;;;;;;;4.10;1.75;;;17.80;99.90;;;;;;4181691;28;20215;-76
2022/01/05 08:03:01;;;;;;;3.85;1.65;;;17.80;99.90;;;;;;4181431;28;20215;-76
2022/01/05 08:05:06;;;;;;;4.68;2.03;;;17.90;99.90;;;;;;4181497;28;20216;-75
2022/01/05 08:07:09;;;;;;;5.78;1.83;;;17.90;99.90;;;;;;4181246;28;20223;-76
2022/01/05 08:09:11;;;;;;;4.50;1.90;;;17.90;99.90;;;;;;4181192;28;20664;-75
2022/01/05 08:11:14;;;;;;;4.63;2.00;;;17.90;99.90;;;;;;4181340;28;20725;-76
2022/01/05 08:13:16;;;;;;;3.92;1.75;;;17.90;99.90;;;;;;4181620;28;20243;-75
2022/01/05 08:15:19;;;;;;;5.22;1.85;;;17.90;99.90;;;;;;4181540;28;20306;-75
2022/01/05 08:17:21;;;;;;;7.28;2.15;;;17.90;99.90;;;;;;4181532;28;20270;-75
2022/01/05 08:19:23;;;;;;;4.20;1.88;;;17.90;99.90;;;;;;4181425;28;20730;-75
2022/01/05 08:21:27;;;;;;;5.65;1.98;;;17.90;99.90;;;;;;4180689;28;20219;-75
2022/01/05 08:23:30;;;;;;;4.32;1.92;;;17.90;99.90;;;;;;4181131;28;20215;-76
2022/01/05 08:25:32;;;;;;;3.13;1.45;;;17.90;99.90;;;;;;4181313;28;20223;-75
2022/01/05 08:27:34;;;;;;;4.20;1.73;;;17.90;99.90;;;;;;4181450;28;20219;-76
2022/01/05 08:29:37;;;;;;;3.85;1.65;;;17.90;99.90;;;;;;4180940;28;20257;-76
2022/01/05 08:31:39;;;;;;;3.67;1.67;;;17.90;99.90;;;;;;4181012;28;20282;-75
2022/01/05 08:33:42;;;;;;;3.92;1.75;;;17.90;99.90;;;;;;4180639;28;20220;-75
2022/01/05 08:35:46;;;;;;;6.53;2.28;;;17.90;99.90;;;;;;4181128;28;20621;-76
2022/01/05 08:37:50;;;;;;;4.85;1.83;;;17.90;99.90;;;;;;4181010;28;20220;-75
2022/01/05 08:39:53;;;;;;;4.15;1.60;;;18.00;99.90;;;;;;4180950;28;20215;-75
2022/01/05 08:41:55;;;;;;;4.50;1.85;;;18.00;99.90;;;;;;4181150;28;20262;-75
2022/01/05 08:43:57;;;;;;;5.60;1.73;;;17.90;99.90;;;;;;4180850;28;20638;-76
2022/01/05 08:46:00;;;;;;;4.45;1.70;;;18.00;99.90;;;;;;4180849;28;20277;-75
2022/01/05 08:48:03;;;;;;;4.65;1.58;;;17.90;99.90;;;;;;4180532;28;20676;-76
2022/01/05 08:50:07;;;;;;;5.30;1.77;;;17.90;99.90;;;;;;4180681;28;20238;-75
2022/01/05 08:52:09;;;;;;;5.15;1.77;;;18.00;99.90;;;;;;4180405;28;20269;-76
2022/01/05 08:54:13;;;;;;;3.78;1.80;;;17.90;99.90;;;;;;4181194;28;20234;-75
2022/01/05 08:56:15;;;;;;;4.88;1.67;;;18.00;99.90;;;;;;4180437;28;20235;-76
2022/01/05 08:58:19;;;;;;;5.68;1.73;;;18.00;99.90;;;;;;4181029;28;20261;-76
2022/01/05 09:00:22;;;;;;;4.18;1.50;;;17.90;99.90;;;;;;4180439;28;20215;-76
2022/01/05 09:02:24;;;;;;;3.40;1.83;;;18.00;99.90;;;;;;4180623;28;20220;-76
2022/01/05 09:04:26;;;;;;;6.40;2.17;;;18.00;99.90;;;;;;4180492;28;20216;-76
2022/01/05 09:06:29;;;;;;;4.75;1.80;;;18.00;99.90;;;;;;4180588;28;20215;-76
2022/01/05 09:08:31;;;;;;;6.63;1.85;;;18.00;99.90;;;;;;4180703;28;20216;-76
2022/01/05 09:10:35;;;;;;;3.85;1.90;;;18.00;99.90;;;;;;4180716;28;20224;-75
2022/01/05 09:12:38;;;;;;;3.95;1.55;;;18.00;99.90;;;;;;4180565;28;20207;-76
2022/01/05 09:14:41;;;;;;;4.55;1.95;;;18.00;99.90;;;;;;4175605;28;20258;-76
2022/01/05 09:16:45;;;;;;;5.05;1.85;;;18.00;99.90;;;;;;4191205;28;20284;-76
2022/01/05 09:18:48;;;;;;;5.72;1.85;;;18.00;99.90;;;;;;4196918;28;20721;-76
2022/01/05 09:20:50;;;;;;;4.82;2.00;;;18.00;99.90;;;;;;4196682;28;20276;-76
2022/01/05 09:22:52;;;;;;;6.18;1.60;;;18.00;99.90;;;;;;4197107;28;20211;-76
2022/01/05 09:24:55;;;;;;;4.38;1.77;;;18.00;99.90;;;;;;4197149;28;20625;-76
2022/01/05 09:27:02;;;;;;;6.72;2.20;;;18.00;99.90;;;;;;4196569;28;20257;-76
2022/01/05 09:29:05;;;;;;;5.15;1.98;;;18.00;99.90;;;;;;4196642;28;20249;-76
2022/01/05 09:31:07;;;;;;;5.40;1.80;;;18.00;99.90;;;;;;4196593;28;20215;-76
2022/01/05 09:33:10;;;;;;;5.65;1.90;;;18.00;99.90;;;;;;4197036;28;20215;-76
2022/01/05 09:35:15;;;;;;;6.13;2.10;;;18.10;99.90;;;;;;4196767;28;20691;-76
2022/01/05 09:37:22;;;;;;;6.32;1.95;;;18.00;99.90;;;;;;4196949;28;20293;-76
2022/01/05 09:42:00;;;;;;;5.07;2.00;;;18.00;99.90;;;;;;4197436;28;20191;-76
2022/01/05 09:44:08;;;;;;;5.53;2.08;;;18.00;99.90;;;;;;4196850;28;20265;-76
2022/01/05 09:46:20;;;;;;;5.47;1.90;;;18.00;99.90;;;;;;4197048;28;20420;-76
2022/01/05 09:48:38;;;;;;;4.03;1.88;;;18.10;99.90;;;;;;4197027;28;20268;-76
2022/01/05 09:50:51;;;;;;;4.30;2.10;;;18.10;99.90;;;;;;4196731;28;20215;-76
2022/01/05 09:52:54;;;;;;;4.55;1.90;;;18.10;99.90;;;;;;4196651;28;20215;-76
2022/01/05 09:54:57;;;;;;;4.68;1.77;;;18.10;99.90;;;;;;4196694;28;20272;-76
2022/01/05 09:57:00;;;;;;;5.60;2.03;;;18.10;99.90;;;;;;4198882;28;20234;-76
2022/01/05 09:59:05;;;;;;;6.03;2.13;;;18.10;99.90;;;;;;4200029;28;20219;-76
2022/01/05 10:01:08;;;;;;;5.43;2.20;;;18.10;99.90;;;;;;4199953;28;20219;-76
2022/01/05 10:03:14;;;;;;;6.10;2.00;;;18.10;99.90;;;;;;4200001;28;20219;-76
2022/01/05 10:05:17;;;;;;;3.75;1.83;;;18.10;99.90;;;;;;4200058;28;20269;-76
2022/01/05 10:07:20;;;;;;;5.38;2.10;;;18.10;99.90;;;;;;4199837;28;20211;-76
2022/01/05 10:09:22;;;;;;;6.82;2.50;;;18.10;99.90;;;;;;4199804;28;20223;-76
2022/01/05 10:11:25;;;;;;;4.78;1.67;;;18.20;99.90;;;;;;4200137;28;20230;-76
2022/01/05 10:13:27;;;;;;;5.43;2.05;;;18.10;99.90;;;;;;4194171;28;20219;-76
2022/01/05 10:15:31;;;;;;;4.25;1.90;;;18.20;99.90;;;;;;4178761;28;20212;-76
2022/01/05 10:17:36;;;;;;;4.22;1.63;;;18.20;99.90;;;;;;4183070;28;20232;-76
2022/01/05 10:19:38;;;;;;;5.45;1.80;;;18.10;99.90;;;;;;4183148;28;20555;-76
2022/01/05 10:21:41;;;;;;;5.28;2.42;;;18.20;99.90;;;;;;4183056;28;20273;-76
2022/01/05 10:23:45;;;;;;;3.25;1.60;;;18.20;99.90;;;;;;4182750;28;20216;-76
2022/01/05 10:25:48;;;;;;;4.50;1.80;;;18.20;99.90;;;;;;4183151;28;20219;-76
2022/01/05 10:27:57;;;;;;;4.97;2.03;;;18.20;99.90;;;;;;4183065;28;20265;-76
2022/01/05 10:30:01;;;;;;;5.47;2.00;;;18.20;99.90;;;;;;4183003;28;20729;-76
2022/01/05 10:32:08;;;;;;;5.57;1.90;;;18.20;99.90;;;;;;4166646;28;20212;-76
2022/01/05 10:34:15;;;;;;;4.85;1.98;;;18.20;99.90;;;;;;4165950;28;20298;-76
2022/01/05 10:36:18;;;;;;;5.25;1.65;;;18.20;99.90;;;;;;4166230;28;20211;-76
2022/01/05 10:38:28;;;;;;;3.28;1.90;;;18.20;99.90;;;;;;4166448;28;20271;-76
2022/01/05 10:40:37;;;;;;;5.55;2.25;;;18.20;99.90;;;;;;4166786;28;20689;-76
2022/01/05 10:42:40;;;;;;;4.93;2.22;;;18.20;99.90;;;;;;4166373;28;20258;-76
2022/01/05 10:44:44;;;;;;;5.07;2.05;;;18.20;99.90;;;;;;4166529;28;20657;-76